»·PEaware :: UAL1399 KPHX-KONT

UAL1399 :: KPHX-KONT

FLIGHT INFORMATION

Flight Status: Arrived
Operator:
United Airlines
More flights by this operator :: More flights under this callsign
Pilot: David C. (16084)
Aircraft: Unknown
(A359)
More flights by this aircraft type
Origin: KPHX Phoenix Sky Harbor Intl
United States
Destination: KONT Ontario Intl
United States
More flights between these airports :: More routes between these airports
Route: KEENS2 HRRBR PHRED SCBBY2
File this flight plan on PilotEdge
Remarks:
Altitude:
(Current/Filed)
30,000ft
Speed:
(Current/Filed)
522kts
Departed: 23-Sep-22 10:49 AM
Arrived: 23-Sep-22 11:38 AM
Distance/Time
Traveled:
281nm/0:49
Distance/Time
To Go:
Arrived

Flight Plot

Page will automatically refresh every two minutes.

Flight plan parsing failed; only flown route is shown


Map Options




Map Legend


Flown Route
Filed Route
Departure Airport
Arrival Airport
Navaid (VOR, NDB)
Fix

Horizontal Profiles

Position Reports

Time Latitude Longitude Heading Altitude Ground
Speed
23-Sep-22 10:03 33.433943 -112.013116 282 1144ft 0kts
23-Sep-22 10:04 33.433943 -112.013116 282 1144ft 0kts
23-Sep-22 10:05 33.433943 -112.013116 282 1144ft 0kts
23-Sep-22 10:06 33.433943 -112.013116 282 1144ft 0kts
23-Sep-22 10:07 33.433943 -112.013116 282 1144ft 0kts
23-Sep-22 10:08 33.433943 -112.013116 282 1144ft 0kts
23-Sep-22 10:09 33.433943 -112.013116 282 1145ft 0kts
23-Sep-22 10:10 33.433943 -112.013116 282 1145ft 0kts
23-Sep-22 10:11 33.433943 -112.013116 282 1145ft 0kts
23-Sep-22 10:12 33.433943 -112.013116 282 1145ft 0kts
23-Sep-22 10:13 33.433943 -112.013116 282 1145ft 0kts
23-Sep-22 10:14 33.433943 -112.013116 282 1145ft 0kts
23-Sep-22 10:15 33.433943 -112.013116 282 1145ft 0kts
23-Sep-22 10:16 33.433943 -112.013116 282 1145ft 0kts
23-Sep-22 10:17 33.433943 -112.013116 282 1145ft 0kts
23-Sep-22 10:18 33.433943 -112.013116 282 1145ft 0kts
23-Sep-22 10:19 33.433943 -112.013116 282 1145ft 0kts
23-Sep-22 10:20 33.433943 -112.013116 282 1145ft 0kts
23-Sep-22 10:21 33.433943 -112.013116 282 1145ft 0kts
23-Sep-22 10:22 33.433943 -112.013116 282 1145ft 0kts
23-Sep-22 10:23 33.433943 -112.013116 282 1145ft 0kts
23-Sep-22 10:24 33.433943 -112.013116 282 1145ft 0kts
23-Sep-22 10:25 33.433943 -112.013116 282 1145ft 0kts
23-Sep-22 10:26 33.433943 -112.013116 282 1145ft 0kts
23-Sep-22 10:27 33.433943 -112.013116 282 1145ft 0kts
23-Sep-22 10:28 33.433943 -112.013116 282 1145ft 0kts
23-Sep-22 10:29 33.433943 -112.013116 282 1145ft 0kts
23-Sep-22 10:30 33.433943 -112.013116 282 1145ft 0kts
23-Sep-22 10:31 33.433943 -112.013116 282 1145ft 0kts
23-Sep-22 10:32 33.433943 -112.013116 282 1145ft 0kts
23-Sep-22 10:33 33.433924 -112.012504 262 1145ft 2kts
23-Sep-22 10:34 33.433969 -112.012218 254 1145ft 0kts
23-Sep-22 10:35 33.433969 -112.012218 254 1145ft 0kts
23-Sep-22 10:36 33.433969 -112.012218 254 1145ft 0kts
23-Sep-22 10:37 33.433969 -112.012218 254 1145ft 0kts
23-Sep-22 10:38 33.433969 -112.012218 254 1145ft 0kts
23-Sep-22 10:39 33.433969 -112.012218 254 1145ft 0kts
23-Sep-22 10:40 33.433969 -112.012218 254 1145ft 0kts
23-Sep-22 10:41 33.433625 -112.012335 171 1145ft 0kts
23-Sep-22 10:42 33.433417 -112.012299 174 1144ft 6kts
23-Sep-22 10:43 33.432890 -112.017692 269 1145ft 28kts
23-Sep-22 10:44 33.432775 -112.026481 241 1145ft 13kts
23-Sep-22 10:45 33.432321 -112.026859 195 1145ft 0kts
23-Sep-22 10:46 33.432321 -112.026859 195 1145ft 0kts
23-Sep-22 10:47 33.431043 -112.025667 93 1145ft 24kts
23-Sep-22 10:48 33.431085 -111.983223 88 1627ft 184kts
23-Sep-22 10:49 33.433435 -111.914361 86 3380ft 238kts
23-Sep-22 10:50 33.406105 -111.848089 156 6310ft 251kts
23-Sep-22 10:51 33.352417 -111.883177 261 8939ft 254kts
23-Sep-22 10:52 33.359771 -111.970378 276 10859ft 286kts
23-Sep-22 10:53 33.372787 -112.073800 280 12039ft 344kts
23-Sep-22 10:54 33.390377 -112.191718 280 14143ft 366kts
23-Sep-22 10:55 33.408258 -112.312684 279 16527ft 375kts
23-Sep-22 10:56 33.426436 -112.437531 279 18657ft 387kts
23-Sep-22 10:57 33.444984 -112.566131 278 20603ft 399kts
23-Sep-22 10:58 33.451517 -112.700444 270 22456ft 410kts
23-Sep-22 10:59 33.460017 -112.839755 280 23631ft 437kts
23-Sep-22 11:00 33.487110 -112.984882 281 25146ft 453kts
23-Sep-22 11:01 33.514792 -113.133582 281 26803ft 464kts
23-Sep-22 11:02 33.542852 -113.285848 281 28357ft 474kts
23-Sep-22 11:03 33.571550 -113.442577 281 29499ft 492kts
23-Sep-22 11:04 33.601258 -113.603512 281 29968ft 496kts
23-Sep-22 11:05 33.631247 -113.765140 280 29951ft 505kts
23-Sep-22 11:06 33.648032 -113.935876 270 29941ft 519kts
23-Sep-22 11:07 33.647028 -114.108589 271 29920ft 518kts
23-Sep-22 11:08 33.661204 -114.280555 275 29918ft 519kts
23-Sep-22 11:09 33.678228 -114.452285 275 29918ft 519kts
23-Sep-22 11:10 33.694884 -114.623806 275 29918ft 519kts
23-Sep-22 11:11 33.711348 -114.796563 275 29918ft 519kts
23-Sep-22 11:12 33.727503 -114.968290 275 29918ft 519kts
23-Sep-22 11:13 33.743426 -115.139612 274 29918ft 516kts
23-Sep-22 11:14 33.760419 -115.310632 275 29940ft 515kts
23-Sep-22 11:15 33.777715 -115.479854 275 29279ft 504kts
23-Sep-22 11:16 33.794659 -115.644436 275 26093ft 488kts
23-Sep-22 11:17 33.810479 -115.802851 275 23636ft 465kts
23-Sep-22 11:18 33.825321 -115.952687 275 21861ft 432kts
23-Sep-22 11:19 33.839244 -116.095419 275 21030ft 437kts
23-Sep-22 11:20 33.853751 -116.239136 275 19155ft 427kts
23-Sep-22 11:21 33.868512 -116.378128 276 17097ft 415kts
23-Sep-22 11:22 33.890730 -116.512375 285 15195ft 402kts
23-Sep-22 11:23 33.921497 -116.633456 285 12997ft 349kts
23-Sep-22 11:24 33.945879 -116.737718 275 10974ft 301kts
23-Sep-22 11:25 33.945341 -116.833111 265 10284ft 276kts
23-Sep-22 11:26 33.942185 -116.924360 266 9540ft 267kts
23-Sep-22 11:27 33.955610 -117.006713 291 8518ft 246kts
23-Sep-22 11:28 33.981112 -117.078841 291 7389ft 226kts
23-Sep-22 11:29 34.005331 -117.148280 291 6409ft 223kts
23-Sep-22 11:30 34.024542 -117.218314 283 5698ft 214kts
23-Sep-22 11:31 34.039244 -117.286216 283 5233ft 208kts
23-Sep-22 11:32 34.053487 -117.353391 274 4470ft 204kts
23-Sep-22 11:33 34.055051 -117.420168 269 3589ft 193kts
23-Sep-22 11:34 34.055036 -117.478722 269 2630ft 154kts
23-Sep-22 11:35 34.054984 -117.529732 269 1853ft 151kts
23-Sep-22 11:36 34.054952 -117.580135 269 1057ft 149kts
23-Sep-22 11:37 34.054966 -117.608424 270 956ft 37kts
23-Sep-22 11:38 34.057961 -117.609431 89 956ft 11kts
23-Sep-22 11:39 34.057955 -117.600800 91 956ft 14kts
23-Sep-22 11:40 34.059628 -117.599162 4 956ft 0kts
23-Sep-22 11:41 34.059749 -117.599154 3 956ft 0kts

Navigation Log

Ident Type
Flight plan parsing failed, navigation log unavailable